createdAt,value
2019-03-29T00:00:16.036Z,53.40
2019-03-29T00:02:46.968Z,55.85
2019-03-29T00:05:16.315Z,56.25
2019-03-29T00:07:45.727Z,55.40
2019-03-29T00:10:15.176Z,56.73
2019-03-29T00:12:44.588Z,55.70
2019-03-29T00:15:14.822Z,54.24
2019-03-29T00:17:44.935Z,52.88
2019-03-29T00:20:15.224Z,56.15
2019-03-29T00:22:45.207Z,55.60
2019-03-29T00:25:34.678Z,55.43
2019-03-29T00:28:03.988Z,50.53
2019-03-29T00:30:33.320Z,53.63
2019-03-29T00:33:02.624Z,54.85
2019-03-29T00:35:31.981Z,55.17
2019-03-29T00:38:01.473Z,54.03
2019-03-29T00:40:30.818Z,56.05
2019-03-29T00:43:00.217Z,58.63
2019-03-29T00:45:29.552Z,58.10
2019-03-29T00:47:58.852Z,57.65
2019-03-29T00:50:28.186Z,55.55
2019-03-29T00:52:57.518Z,55.00
2019-03-29T00:55:26.870Z,51.77
2019-03-29T00:57:56.862Z,55.28
2019-03-29T01:00:26.324Z,51.88
2019-03-29T01:02:55.674Z,55.38
2019-03-29T01:05:25.353Z,54.88
2019-03-29T01:08:07.022Z,56.00
2019-03-29T01:10:25.735Z,49.93
2019-03-29T01:12:55.090Z,55.80
2019-03-29T01:15:24.725Z,57.50
2019-03-29T01:17:54.073Z,52.78
2019-03-29T01:20:23.392Z,54.35
2019-03-29T01:22:52.725Z,54.65
2019-03-29T01:25:22.063Z,56.45
2019-03-29T01:27:51.404Z,57.25
2019-03-29T01:30:20.841Z,55.85
2019-03-29T01:32:50.181Z,54.42
2019-03-29T01:35:19.574Z,52.80
2019-03-29T01:37:50.099Z,53.87
2019-03-29T01:40:20.014Z,52.60
2019-03-29T01:42:50.291Z,53.92
2019-03-29T01:45:20.278Z,49.83
2019-03-29T01:47:50.586Z,48.00
2019-03-29T01:50:20.609Z,52.67
2019-03-29T01:52:49.902Z,51.18
2019-03-29T01:55:19.282Z,53.80
2019-03-29T01:57:48.889Z,52.00
2019-03-29T02:00:29.500Z,54.42
2019-03-29T02:02:58.855Z,53.23
2019-03-29T02:05:28.163Z,52.13
2019-03-29T02:07:57.572Z,52.35
2019-03-29T02:10:26.914Z,50.75
2019-03-29T02:12:57.250Z,51.40
2019-03-29T02:15:26.646Z,52.67
2019-03-29T02:17:56.001Z,50.52
2019-03-29T02:20:25.331Z,48.20
2019-03-29T02:22:54.672Z,50.60
2019-03-29T02:25:23.963Z,49.20
2019-03-29T02:27:53.321Z,50.10
2019-03-29T02:30:22.960Z,54.48
2019-03-29T02:32:53.200Z,50.12
2019-03-29T02:35:23.281Z,55.80
2019-03-29T02:37:53.418Z,52.88
2019-03-29T02:40:23.551Z,50.95
2019-03-29T02:42:53.792Z,46.58
2019-03-29T02:45:23.896Z,51.40
2019-03-29T02:47:54.021Z,53.12
2019-03-29T02:50:24.283Z,53.08
2019-03-29T02:52:54.332Z,51.55
2019-03-29T02:55:24.446Z,45.52
2019-03-29T02:57:55.968Z,50.23
2019-03-29T03:00:25.306Z,48.52
2019-03-29T03:02:54.919Z,56.16
2019-03-29T03:05:25.242Z,49.58
2019-03-29T03:07:58.881Z,55.50
2019-03-29T03:10:28.239Z,54.85
2019-03-29T03:12:57.628Z,49.55
2019-03-29T03:15:26.939Z,49.58
2019-03-29T03:17:56.473Z,53.58
2019-03-29T03:20:25.992Z,48.80
2019-03-29T03:23:15.587Z,52.43
2019-03-29T03:25:44.925Z,51.73
2019-03-29T03:28:14.238Z,53.97
2019-03-29T03:30:43.785Z,51.70
2019-03-29T03:33:13.279Z,48.48
2019-03-29T03:35:42.603Z,47.48
2019-03-29T03:38:11.895Z,46.70
2019-03-29T03:40:41.311Z,47.43
2019-03-29T03:43:10.666Z,47.30
2019-03-29T03:45:39.997Z,45.48
2019-03-29T03:48:09.723Z,44.67
2019-03-29T03:50:40.478Z,48.17
2019-03-29T03:53:10.635Z,47.78
2019-03-29T03:55:41.206Z,47.80
2019-03-29T03:58:11.179Z,45.03
2019-03-29T04:00:55.242Z,47.90
2019-03-29T04:03:26.393Z,45.05
2019-03-29T04:05:56.840Z,46.68
2019-03-29T04:08:26.306Z,45.95
2019-03-29T04:10:55.706Z,47.08
2019-03-29T04:13:25.125Z,45.35
2019-03-29T04:15:54.456Z,45.25
2019-03-29T04:18:23.773Z,47.40
2019-03-29T04:20:53.163Z,44.23
2019-03-29T04:23:22.539Z,45.15
2019-03-29T04:25:51.898Z,43.50
2019-03-29T04:28:28.255Z,44.53
2019-03-29T04:31:01.053Z,44.77
2019-03-29T04:33:30.558Z,46.20
2019-03-29T04:36:00.847Z,40.57
2019-03-29T04:38:30.795Z,40.15
2019-03-29T04:41:01.086Z,41.95
2019-03-29T04:43:31.107Z,37.98
2019-03-29T04:46:01.622Z,42.55
2019-03-29T04:48:31.469Z,47.73
2019-03-29T04:51:01.611Z,43.45
2019-03-29T04:53:31.754Z,43.10
2019-03-29T04:56:01.889Z,41.70
2019-03-29T04:58:32.378Z,43.20
2019-03-29T05:01:02.335Z,45.45
2019-03-29T05:03:32.459Z,44.27
2019-03-29T05:06:02.731Z,43.42
2019-03-29T05:08:32.995Z,40.70
2019-03-29T05:11:02.915Z,39.73
2019-03-29T05:13:33.183Z,41.48
2019-03-29T05:16:03.260Z,42.50
2019-03-29T05:18:33.423Z,38.90
2019-03-29T05:21:03.731Z,39.45
2019-03-29T05:23:33.711Z,30.23
2019-03-29T05:26:04.302Z,38.78
2019-03-29T05:28:34.033Z,48.08
2019-03-29T05:31:04.095Z,47.16
2019-03-29T05:33:34.227Z,48.68
2019-03-29T05:36:04.474Z,46.98
2019-03-29T05:38:34.588Z,45.28
2019-03-29T05:41:04.713Z,46.33
2019-03-29T05:43:34.870Z,49.08
2019-03-29T05:46:05.044Z,41.70
2019-03-29T05:48:35.097Z,45.40
2019-03-29T05:51:05.334Z,45.33
2019-03-29T05:53:35.813Z,41.95
2019-03-29T05:56:05.549Z,40.83
2019-03-29T05:58:35.777Z,41.85
2019-03-29T06:01:05.083Z,41.83
2019-03-29T06:03:34.463Z,42.95
2019-03-29T06:06:06.300Z,42.63
2019-03-29T06:08:35.603Z,40.65
2019-03-29T06:11:04.923Z,40.43
2019-03-29T06:13:34.227Z,38.17
2019-03-29T06:16:06.083Z,42.10
2019-03-29T06:18:34.543Z,41.13
2019-03-29T06:21:03.851Z,36.03
2019-03-29T06:23:33.191Z,37.17
2019-03-29T06:26:02.487Z,36.20
2019-03-29T06:28:31.802Z,33.13
2019-03-29T06:31:01.140Z,32.20
2019-03-29T06:33:30.449Z,30.62
2019-03-29T06:36:01.401Z,28.07
2019-03-29T06:38:33.729Z,25.77
2019-03-29T06:41:03.688Z,31.68
2019-03-29T06:43:33.239Z,24.13
2019-03-29T06:46:02.550Z,24.90
2019-03-29T06:48:32.068Z,23.98
2019-03-29T06:51:01.367Z,21.40
2019-03-29T06:53:30.690Z,19.40
2019-03-29T06:56:00.029Z,19.10
2019-03-29T06:58:39.542Z,19.50
2019-03-29T07:01:08.898Z,18.73
2019-03-29T07:03:38.256Z,17.67
2019-03-29T07:06:07.610Z,17.02
2019-03-29T07:08:36.965Z,17.57
2019-03-29T07:11:16.732Z,17.70
2019-03-29T07:13:37.482Z,17.42
2019-03-29T07:16:06.830Z,17.10
2019-03-29T07:18:36.353Z,16.45
2019-03-29T07:21:05.678Z,14.25
2019-03-29T07:23:35.072Z,14.28
2019-03-29T07:26:04.385Z,14.33
2019-03-29T07:28:34.701Z,14.28
2019-03-29T07:31:04.129Z,13.55
2019-03-29T07:33:33.456Z,14.75
2019-03-29T07:36:02.795Z,15.40
2019-03-29T07:38:32.098Z,14.87
2019-03-29T07:41:01.426Z,15.18
2019-03-29T07:43:30.822Z,14.13
2019-03-29T07:46:00.195Z,15.15
2019-03-29T07:48:29.500Z,14.23
2019-03-29T07:50:58.868Z,14.87
2019-03-29T07:53:28.205Z,15.08
2019-03-29T07:55:57.540Z,14.93
2019-03-29T07:58:27.809Z,14.55
2019-03-29T08:00:57.119Z,15.00
2019-03-29T08:03:26.434Z,15.03
2019-03-29T08:05:55.751Z,15.20
2019-03-29T08:08:31.795Z,14.28
2019-03-29T08:10:56.197Z,15.13
2019-03-29T08:13:25.609Z,14.10
2019-03-29T08:15:54.993Z,14.80
2019-03-29T08:18:25.286Z,12.98
2019-03-29T08:20:55.767Z,14.58
2019-03-29T08:23:28.526Z,13.38
2019-03-29T08:25:56.128Z,14.73
2019-03-29T08:28:25.440Z,14.33
2019-03-29T08:30:54.774Z,13.72
2019-03-29T08:33:24.112Z,13.78
2019-03-29T08:35:53.525Z,13.85
2019-03-29T08:38:22.842Z,13.10
2019-03-29T08:40:52.163Z,13.32
2019-03-29T08:43:21.486Z,12.98
2019-03-29T08:45:50.841Z,12.65
2019-03-29T08:48:20.151Z,12.13
2019-03-29T08:50:49.486Z,12.30
2019-03-29T08:53:18.841Z,12.88
2019-03-29T08:55:48.164Z,12.75
2019-03-29T08:58:17.822Z,12.02
2019-03-29T09:00:47.993Z,12.73
2019-03-29T09:03:18.029Z,12.45
2019-03-29T09:05:48.191Z,13.38
2019-03-29T09:08:18.458Z,12.28
2019-03-29T09:10:48.539Z,11.93
2019-03-29T09:13:18.926Z,12.58
2019-03-29T09:15:48.778Z,12.73
2019-03-29T09:18:19.061Z,12.23
2019-03-29T09:20:49.106Z,12.65
2019-03-29T09:23:19.389Z,12.93
2019-03-29T09:25:49.456Z,12.50
2019-03-29T09:28:19.700Z,12.78
2019-03-29T09:30:49.820Z,13.60
2019-03-29T09:33:19.957Z,13.00
2019-03-29T09:35:50.026Z,14.15
2019-03-29T09:38:20.277Z,13.65
2019-03-29T09:40:58.383Z,14.60
2019-03-29T09:43:21.848Z,12.98
2019-03-29T09:45:52.144Z,14.07
2019-03-29T09:48:21.659Z,13.00
2019-03-29T09:50:51.229Z,13.46
2019-03-29T09:53:21.601Z,12.25
2019-03-29T09:55:53.437Z,13.72
2019-03-29T09:58:22.382Z,12.98
2019-03-29T10:00:51.786Z,11.53
2019-03-29T10:03:21.883Z,12.47
2019-03-29T10:05:52.042Z,12.03
2019-03-29T10:08:22.392Z,12.58
2019-03-29T10:10:52.348Z,11.93
2019-03-29T10:13:22.592Z,10.68
2019-03-29T10:15:52.761Z,10.68
2019-03-29T10:18:22.834Z,11.83
2019-03-29T10:20:52.970Z,12.25
2019-03-29T10:23:23.199Z,10.28
2019-03-29T10:25:53.487Z,9.73
2019-03-29T10:28:23.565Z,14.03
2019-03-29T10:30:53.801Z,13.80
2019-03-29T10:33:24.004Z,13.10
2019-03-29T10:35:53.980Z,11.75
2019-03-29T10:38:24.292Z,9.35
2019-03-29T10:40:54.566Z,10.63
2019-03-29T10:43:24.473Z,10.13
2019-03-29T10:45:54.597Z,9.68
2019-03-29T10:48:24.882Z,9.53
2019-03-29T10:50:54.869Z,10.45
2019-03-29T10:53:28.456Z,9.65
2019-03-29T10:55:56.190Z,10.00
2019-03-29T10:58:25.566Z,9.70
2019-03-29T11:00:55.542Z,9.83
2019-03-29T11:03:28.532Z,9.38
2019-03-29T11:05:56.762Z,9.08
2019-03-29T11:08:26.073Z,7.50
2019-03-29T11:10:56.336Z,6.58
2019-03-29T11:13:26.400Z,7.05
2019-03-29T11:15:56.554Z,7.42
2019-03-29T11:18:26.669Z,6.87
2019-03-29T11:20:56.817Z,6.72
2019-03-29T11:23:26.978Z,7.40
2019-03-29T11:25:57.112Z,7.10
2019-03-29T11:28:27.352Z,7.08
2019-03-29T11:30:57.406Z,8.50
2019-03-29T11:33:27.661Z,8.93
2019-03-29T11:35:57.911Z,7.20
2019-03-29T11:38:27.833Z,7.55
2019-03-29T11:40:57.945Z,5.95
2019-03-29T11:43:28.187Z,7.33
2019-03-29T11:45:58.228Z,6.97
2019-03-29T11:48:29.666Z,6.53
2019-03-29T11:50:59.196Z,6.30
2019-03-29T11:53:28.716Z,7.35
2019-03-29T11:55:58.952Z,6.80
2019-03-29T11:58:41.688Z,5.65
2019-03-29T12:01:11.112Z,6.08
2019-03-29T12:03:41.187Z,6.33
2019-03-29T12:06:12.144Z,7.10
2019-03-29T12:08:41.562Z,7.03
2019-03-29T12:11:10.852Z,6.62
2019-03-29T12:13:41.457Z,5.85
2019-03-29T12:16:14.507Z,7.47
2019-03-29T12:18:50.563Z,7.28
2019-03-29T12:21:19.876Z,7.30
2019-03-29T12:23:49.213Z,6.60
2019-03-29T12:26:18.597Z,7.30
2019-03-29T12:28:55.183Z,6.50
2019-03-29T12:31:24.497Z,6.00
2019-03-29T12:33:53.828Z,6.00
2019-03-29T12:36:23.417Z,5.80
2019-03-29T12:38:52.737Z,5.67
2019-03-29T12:41:22.067Z,5.62
2019-03-29T12:43:55.823Z,6.87
2019-03-29T12:46:22.523Z,6.45
2019-03-29T12:48:51.988Z,6.53
2019-03-29T12:51:21.306Z,5.37
2019-03-29T12:53:51.123Z,6.40
2019-03-29T12:56:20.447Z,5.47
2019-03-29T12:58:50.841Z,6.37
2019-03-29T13:01:20.253Z,6.45
2019-03-29T13:03:49.655Z,6.33
2019-03-29T13:06:18.958Z,6.95
2019-03-29T13:08:48.288Z,6.50
2019-03-29T13:11:17.629Z,6.70
2019-03-29T13:13:46.952Z,5.30
2019-03-29T13:16:16.345Z,5.70
2019-03-29T13:18:49.107Z,6.70
2019-03-29T13:21:18.470Z,6.35
2019-03-29T13:23:47.825Z,6.60
2019-03-29T13:26:17.385Z,6.05
2019-03-29T13:28:47.121Z,6.00
2019-03-29T13:31:16.513Z,6.20
2019-03-29T13:33:45.830Z,6.92
2019-03-29T13:36:15.348Z,6.60
2019-03-29T13:38:44.648Z,6.90
2019-03-29T13:41:13.946Z,6.12
2019-03-29T13:43:43.301Z,6.30
2019-03-29T13:46:12.704Z,6.75
2019-03-29T13:48:42.032Z,5.97
2019-03-29T13:51:11.382Z,6.63
2019-03-29T13:53:40.827Z,7.42
2019-03-29T13:56:10.266Z,6.83
2019-03-29T13:58:40.776Z,5.42
2019-03-29T14:01:10.135Z,6.17
2019-03-29T14:03:42.179Z,5.67
2019-03-29T14:06:12.130Z,6.45
2019-03-29T14:08:41.521Z,5.90
2019-03-29T14:11:10.907Z,5.60
2019-03-29T14:13:40.281Z,6.50
2019-03-29T14:16:09.661Z,5.83
2019-03-29T14:18:39.001Z,5.12
2019-03-29T14:21:08.354Z,6.42
2019-03-29T14:23:38.395Z,6.17
2019-03-29T14:26:08.258Z,7.30
2019-03-29T14:28:38.598Z,6.67
2019-03-29T14:31:08.668Z,6.53
2019-03-29T14:33:39.061Z,6.45
2019-03-29T14:36:08.889Z,6.85
2019-03-29T14:38:39.143Z,5.65
2019-03-29T14:41:09.309Z,6.33
2019-03-29T14:43:39.553Z,4.90
2019-03-29T14:46:09.607Z,5.33
2019-03-29T14:48:39.907Z,5.20
2019-03-29T14:51:10.250Z,5.70
2019-03-29T14:53:40.106Z,6.28
2019-03-29T14:56:10.311Z,6.45
2019-03-29T14:58:40.366Z,6.03
2019-03-29T15:01:10.729Z,5.80
2019-03-29T15:03:40.945Z,4.80
2019-03-29T15:06:11.073Z,5.82
2019-03-29T15:08:41.125Z,5.70
2019-03-29T15:11:21.730Z,5.28
2019-03-29T15:13:42.566Z,6.12
2019-03-29T15:16:11.997Z,5.80
2019-03-29T15:18:41.747Z,4.45
2019-03-29T15:21:12.018Z,4.53
2019-03-29T15:23:42.014Z,5.15
2019-03-29T15:26:12.303Z,4.87
2019-03-29T15:28:42.354Z,4.70
2019-03-29T15:31:12.521Z,4.80
2019-03-29T15:33:42.689Z,4.90
2019-03-29T15:36:12.945Z,3.75
2019-03-29T15:38:43.016Z,4.50
2019-03-29T15:41:13.301Z,4.58
2019-03-29T15:43:43.490Z,4.40
2019-03-29T15:46:13.554Z,4.14
2019-03-29T15:48:43.728Z,3.47
2019-03-29T15:51:13.806Z,3.90
2019-03-29T15:53:43.966Z,3.90
2019-03-29T15:56:14.496Z,3.58
2019-03-29T15:58:44.263Z,4.35
2019-03-29T16:01:14.411Z,3.42
2019-03-29T16:03:44.774Z,3.10
2019-03-29T16:06:14.748Z,4.97
2019-03-29T16:08:45.073Z,3.33
2019-03-29T16:11:17.983Z,2.72
2019-03-29T16:13:46.071Z,4.78
2019-03-29T16:16:15.483Z,4.60
2019-03-29T16:18:47.557Z,3.90
2019-03-29T16:21:17.010Z,4.10
2019-03-29T16:23:46.420Z,2.95
2019-03-29T16:26:16.007Z,3.77
2019-03-29T16:28:46.350Z,3.55
2019-03-29T16:31:16.365Z,3.42
2019-03-29T16:33:46.529Z,3.33
2019-03-29T16:36:16.726Z,2.83
2019-03-29T16:38:46.859Z,3.05
2019-03-29T16:41:17.032Z,3.12
2019-03-29T16:43:47.231Z,3.17
2019-03-29T16:46:17.328Z,2.92
2019-03-29T16:48:48.803Z,2.60
2019-03-29T16:51:18.130Z,2.72
2019-03-29T16:53:47.896Z,3.20
2019-03-29T16:56:18.024Z,3.30
2019-03-29T16:58:48.294Z,2.80
2019-03-29T17:01:18.553Z,3.33
2019-03-29T17:03:48.603Z,3.20
2019-03-29T17:06:18.684Z,2.77
2019-03-29T17:08:48.968Z,3.15
2019-03-29T17:11:19.023Z,3.22
2019-03-29T17:13:49.202Z,2.83
2019-03-29T17:16:29.723Z,2.62
2019-03-29T17:18:51.313Z,3.00
2019-03-29T17:21:20.666Z,2.25
2019-03-29T17:23:52.558Z,2.62
2019-03-29T17:26:21.027Z,2.92
2019-03-29T17:28:50.460Z,3.12
2019-03-29T17:31:20.346Z,3.98
2019-03-29T17:33:50.496Z,2.47
2019-03-29T17:36:20.739Z,2.62
2019-03-29T17:38:50.910Z,2.92
2019-03-29T17:41:20.928Z,3.50
2019-03-29T17:43:51.430Z,2.35
2019-03-29T17:46:21.433Z,2.55
2019-03-29T17:48:51.458Z,2.55
2019-03-29T17:51:21.565Z,2.58
2019-03-29T17:53:51.882Z,2.45
2019-03-29T17:56:21.914Z,1.60
2019-03-29T17:58:52.086Z,2.72
2019-03-29T18:01:22.211Z,2.10
2019-03-29T18:03:52.451Z,2.45
2019-03-29T18:06:22.624Z,2.42
2019-03-29T18:08:52.706Z,2.25
2019-03-29T18:11:22.894Z,2.80
2019-03-29T18:13:53.046Z,2.30
2019-03-29T18:16:30.415Z,2.10
2019-03-29T18:18:54.274Z,2.77
2019-03-29T18:21:23.616Z,2.15
2019-03-29T18:23:53.941Z,2.10
2019-03-29T18:26:24.413Z,2.60
2019-03-29T18:28:54.156Z,2.40
2019-03-29T18:31:24.246Z,2.60
2019-03-29T18:33:54.398Z,2.62
2019-03-29T18:36:24.470Z,2.95
2019-03-29T18:38:54.641Z,3.00
2019-03-29T18:41:24.711Z,3.10
2019-03-29T18:43:55.105Z,3.08
2019-03-29T18:46:25.085Z,2.45
2019-03-29T18:48:55.600Z,3.75
2019-03-29T18:51:25.313Z,3.55
2019-03-29T18:53:55.557Z,3.33
2019-03-29T18:56:25.855Z,2.77
2019-03-29T18:58:55.923Z,4.05
2019-03-29T19:01:26.031Z,4.74
2019-03-29T19:03:56.132Z,4.97
2019-03-29T19:06:26.239Z,4.92
2019-03-29T19:08:56.525Z,4.42
2019-03-29T19:11:26.658Z,5.47
2019-03-29T19:13:56.918Z,13.93
2019-03-29T19:16:27.065Z,19.07
2019-03-29T19:19:09.446Z,21.15
2019-03-29T19:21:29.186Z,18.05
2019-03-29T19:23:58.543Z,16.97
2019-03-29T19:26:27.928Z,15.18
2019-03-29T19:28:57.858Z,9.10
2019-03-29T19:31:27.994Z,9.38
2019-03-29T19:33:58.142Z,8.82
2019-03-29T19:36:28.635Z,6.65
2019-03-29T19:38:58.431Z,6.60
2019-03-29T19:41:28.667Z,6.00
2019-03-29T19:43:58.739Z,6.03
2019-03-29T19:46:29.003Z,5.83
2019-03-29T19:48:59.075Z,5.50
2019-03-29T19:51:29.241Z,5.78
2019-03-29T19:54:07.365Z,5.02
2019-03-29T19:56:30.443Z,5.75
2019-03-29T19:58:59.725Z,4.87
2019-03-29T20:01:29.897Z,5.36
2019-03-29T20:04:00.036Z,5.17
2019-03-29T20:06:30.189Z,5.30
2019-03-29T20:09:01.271Z,5.70
2019-03-29T20:11:32.302Z,5.67
2019-03-29T20:14:01.628Z,6.15
2019-03-29T20:16:30.980Z,6.75
2019-03-29T20:19:00.944Z,6.56
2019-03-29T20:21:30.986Z,7.12
2019-03-29T20:24:01.246Z,7.12
2019-03-29T20:26:31.498Z,7.23
2019-03-29T20:29:01.546Z,6.90
2019-03-29T20:31:31.829Z,8.07
2019-03-29T20:34:01.866Z,8.06
2019-03-29T20:36:32.006Z,7.97
2019-03-29T20:39:07.648Z,8.90
2019-03-29T20:41:37.466Z,9.23
2019-03-29T20:44:06.814Z,7.70
2019-03-29T20:46:36.192Z,7.62
2019-03-29T20:49:05.610Z,7.50
2019-03-29T20:51:35.928Z,7.05
2019-03-29T20:54:05.244Z,6.47
2019-03-29T20:56:34.619Z,7.58
2019-03-29T20:59:04.079Z,6.33
2019-03-29T21:01:33.905Z,5.76
2019-03-29T21:04:03.814Z,6.47
2019-03-29T21:06:34.040Z,6.65
2019-03-29T21:09:06.905Z,6.47
2019-03-29T21:11:36.510Z,6.22
2019-03-29T21:14:05.830Z,6.37
2019-03-29T21:16:35.181Z,7.42
2019-03-29T21:19:04.791Z,7.92
2019-03-29T21:21:35.093Z,6.75
2019-03-29T21:24:05.229Z,7.03
2019-03-29T21:26:35.289Z,6.53
2019-03-29T21:29:11.566Z,6.53
2019-03-29T21:31:40.869Z,7.83
2019-03-29T21:34:10.217Z,6.92
2019-03-29T21:36:39.583Z,7.62
2019-03-29T21:39:11.538Z,8.13
2019-03-29T21:41:41.013Z,6.92
2019-03-29T21:44:11.291Z,7.13
2019-03-29T21:46:40.658Z,7.37
2019-03-29T21:49:10.022Z,7.87
2019-03-29T21:51:39.422Z,7.22
2019-03-29T21:54:08.726Z,7.08
2019-03-29T21:56:38.070Z,9.08
2019-03-29T21:59:07.482Z,8.10
2019-03-29T22:01:36.873Z,9.38
2019-03-29T22:04:06.250Z,8.70
2019-03-29T22:06:35.802Z,9.15
2019-03-29T22:09:07.462Z,8.68
2019-03-29T22:11:37.021Z,9.35
2019-03-29T22:16:33.262Z,8.75
2019-03-29T22:19:03.553Z,7.57
2019-03-29T22:21:32.868Z,8.43
2019-03-29T22:24:02.287Z,7.72
2019-03-29T22:26:31.649Z,8.83
2019-03-29T22:29:01.308Z,8.50
2019-03-29T22:31:30.684Z,8.98
2019-03-29T22:34:00.311Z,8.83
2019-03-29T22:36:29.624Z,8.70
2019-03-29T22:38:58.947Z,8.63
2019-03-29T22:41:28.286Z,12.50
2019-03-29T22:43:57.671Z,11.12
2019-03-29T22:46:27.071Z,16.10
2019-03-29T22:48:56.409Z,12.80
2019-03-29T22:51:25.720Z,18.67
2019-03-29T22:54:08.105Z,14.38
2019-03-29T22:56:37.498Z,13.65
2019-03-29T22:59:06.840Z,11.95
2019-03-29T23:01:39.268Z,12.07
2019-03-29T23:04:08.735Z,10.80
2019-03-29T23:06:38.091Z,11.22
2019-03-29T23:09:11.483Z,11.03
2019-03-29T23:11:39.020Z,9.23
2019-03-29T23:14:08.352Z,10.08
2019-03-29T23:16:39.442Z,10.20
2019-03-29T23:19:08.950Z,11.10
2019-03-29T23:21:38.346Z,10.82
2019-03-29T23:24:07.733Z,11.00
2019-03-29T23:26:37.206Z,9.98
2019-03-29T23:29:06.610Z,9.78
2019-03-29T23:31:35.920Z,9.98
2019-03-29T23:34:05.216Z,10.28
2019-03-29T23:36:34.637Z,9.75
2019-03-29T23:39:05.269Z,9.10
2019-03-29T23:41:35.652Z,9.25
2019-03-29T23:44:04.945Z,9.90
2019-03-29T23:46:34.290Z,9.93
2019-03-29T23:49:03.619Z,9.85
2019-03-29T23:51:32.986Z,10.60
2019-03-29T23:54:02.288Z,9.57
2019-03-29T23:56:31.618Z,10.58
2019-03-29T23:59:00.959Z,10.10
